Date,TemperatureHighF,TemperatureAvgF,TemperatureLowF,DewpointHighF,DewpointAvgF,DewpointLowF,HumidityHigh,HumidityAvg,HumidityLow,PressureMaxIn,PressureMinIn,WindSpeedMaxMPH,WindSpeedAvgMPH,GustSpeedMaxMPH,PrecipitationSumIn
2014-1-1,9.6,8.6,5.4,1.9,-0.4,-3.8,74,66,58,30.44,30.30,11,3,11,0.00
2014-1-2,8.3,-2.4,-11.0,-1.0,-8.7,-17.0,78,74,60,30.39,30.27,7,1,12,0.00
2014-1-3,17.4,7.6,-9.3,6.4,-0.1,-15.6,81,71,60,30.35,29.80,28,6,28,0.00
2014-1-4,30.5,24.7,17.2,27.4,19.6,6.1,92,81,61,30.02,29.64,19,6,31,0.00
2014-1-5,21.4,17.2,11.5,15.5,11.5,5.8,85,78,66,30.12,29.83,22,5,22,0.00
2014-1-6,12.2,6.4,-1.5,6.6,0.7,-7.2,83,77,71,29.87,29.73,27,8,28,0.00
2014-1-7,8.1,3.8,-1.0,3.5,-1.5,-6.8,82,78,75,30.14,29.84,20,5,20,0.00
2014-1-8,12.7,9.6,7.6,8.6,5.0,1.6,86,81,76,30.44,30.14,12,2,12,0.00
2014-1-9,17.0,12.4,8.5,9.1,6.7,3.3,86,78,68,30.51,30.21,13,3,13,0.00
2014-1-10,35.1,25.5,13.8,34.5,22.8,-12.5,98,90,77,30.21,29.52,13,3,14,0.00
2014-1-11,39.2,35.1,30.9,38.9,34.4,28.4,100,98,89,29.56,29.28,14,4,19,0.69
2014-1-12,40.9,35.8,31.4,30.6,27.9,25.4,90,74,55,29.75,29.55,23,5,23,0.04
2014-1-13,40.1,36.5,30.5,35.0,31.3,26.8,93,81,69,29.62,29.44,16,4,20,0.01
2014-1-14,30.9,26.6,22.4,27.1,23.5,20.7,99,88,75,29.67,29.15,23,7,23,0.00
2014-1-15,22.4,18.0,15.7,20.6,13.4,9.1,93,82,71,29.92,29.65,28,8,28,0.00
2014-1-16,24.1,21.5,17.8,21.3,16.8,12.1,91,82,76,29.75,29.50,23,6,23,0.00
2014-1-17,27.8,23.2,19.2,25.0,20.6,16.3,94,89,83,29.84,29.56,14,1,14,0.00
2014-1-18,25.1,20.4,15.9,19.9,16.7,13.0,91,85,71,29.86,29.68,8,1,8,0.01
2014-1-19,29.8,23.8,15.3,25.1,19.7,11.9,94,84,76,29.68,28.91,23,6,23,0.00
2014-1-20,15.3,8.8,5.5,12.4,1.7,-5.1,89,72,55,30.14,29.59,22,6,22,0.00
2014-1-21,6.8,-2.3,-19.5,4.4,-10.1,-27.3,100,69,57,30.27,30.14,19,1,19,0.00
2014-1-22,11.6,7.4,4.2,5.6,1.2,-4.2,100,75,66,30.15,29.81,15,3,16,0.00
2014-1-23,7.3,3.2,-1.8,2.6,-4.0,-9.9,81,71,61,30.44,29.98,17,5,19,0.00
2014-1-24,24.2,14.2,2.1,22.5,9.6,-3.4,93,82,73,30.31,29.23,34,6,34,0.00
2014-1-25,25.0,11.5,4.9,23.3,3.3,-6.9,93,70,54,29.66,29.18,33,8,33,0.00
2014-1-26,15.0,8.7,4.9,12.1,2.8,-4.6,88,77,62,29.66,29.25,21,3,21,0.00
2014-1-27,11.0,3.5,0.5,7.4,-2.8,-7.1,85,74,62,30.14,29.39,25,6,26,0.00
2014-1-28,8.2,4.9,1.7,4.4,-0.6,-4.6,84,77,70,30.15,29.89,25,5,25,0.00
2014-1-29,15.1,11.1,7.8,8.1,5.7,3.5,85,78,70,29.97,29.83,25,5,25,0.00
2014-1-30,26.6,23.0,15.1,25.4,17.3,8.3,95,79,62,29.90,29.53,22,6,22,0.00
2014-1-31,18.2,14.8,8.7,13.1,9.8,3.8,87,80,71,30.10,29.76,16,3,17,0.00
2014-2-1,20.6,15.4,11.8,17.1,12.0,8.2,91,86,81,30.11,29.93,8,2,9,0.00
2014-2-2,17.4,14.2,10.6,14.7,9.8,6.3,92,82,68,30.27,30.00,17,3,17,0.00
2014-2-3,18.9,14.1,10.4,9.2,7.1,3.5,82,74,62,30.31,30.24,13,3,13,0.00
2014-2-4,22.3,14.2,6.4,13.3,8.9,2.8,87,80,64,30.43,30.29,11,2,11,0.04
2014-2-5,15.0,10.7,5.3,7.1,3.2,-1.2,79,71,63,30.37,30.21,21,6,21,0.00
2014-2-6,13.3,9.0,4.3,7.9,2.7,-1.9,84,75,68,30.36,30.12,23,4,23,0.00
2014-2-7,15.0,10.7,5.1,7.5,3.7,-1.0,79,73,67,30.14,30.06,20,6,25,0.00
2014-2-8,19.2,11.9,3.8,7.7,4.2,-2.2,80,71,57,30.20,30.12,14,2,15,0.00
2014-2-9,19.1,13.4,8.8,11.7,7.4,2.1,86,77,58,30.19,30.03,16,2,16,0.00
2014-2-10,9.4,5.9,-2.4,2.7,-0.9,-8.9,82,73,63,30.42,30.19,16,3,16,0.00
2014-2-11,15.0,0.7,-14.0,1.5,-7.7,-21.2,77,68,52,30.49,30.31,13,1,13,0.00
2014-2-12,20.1,15.2,5.1,15.7,9.5,-1.4,84,78,72,30.33,30.04,18,5,18,0.00
2014-2-13,27.5,22.4,18.9,18.5,14.1,7.7,88,72,45,30.04,29.49,17,3,18,0.00
2014-2-14,24.5,17.2,2.5,20.3,13.0,-2.7,91,83,72,29.89,29.45,27,3,27,1.29
2014-2-15,14.8,6.7,-1.8,5.0,0.4,-6.7,83,75,59,30.06,29.87,12,2,13,1.29
2014-2-16,16.7,9.5,-5.6,7.9,3.6,-11.9,86,77,65,30.36,29.99,18,3,18,1.29
2014-2-17,22.5,8.8,-8.4,11.6,-0.8,-14.4,86,67,40,30.37,29.76,17,2,17,1.29
2014-2-18,36.3,22.8,8.6,26.1,17.0,5.2,87,79,65,29.86,29.58,13,2,13,1.29
2014-2-19,40.4,31.6,23.2,28.7,24.7,20.0,97,77,52,29.93,29.57,16,2,16,1.29
2014-2-20,41.9,32.4,22.7,33.3,26.4,17.7,91,79,59,29.98,29.23,31,4,31,1.29
2014-2-21,38.2,28.9,20.9,37.2,24.9,18.7,97,85,76,29.52,29.14,37,9,37,1.29
2014-2-22,24.2,20.4,17.2,19.0,15.1,12.3,92,80,65,29.89,29.51,26,7,27,0.01
2014-2-23,20.0,15.6,11.8,12.8,9.2,2.3,82,76,65,30.02,29.89,21,6,23,0.00
2014-2-24,13.6,10.2,1.9,5.3,1.6,-3.1,81,68,52,30.17,29.99,21,4,24,0.00
2014-2-25,14.5,4.4,-3.7,10.6,-1.9,-9.6,86,75,61,30.15,30.00,18,3,18,0.00
2014-2-26,11.1,5.1,-2.6,7.5,-2.2,-9.8,85,71,58,30.04,29.47,33,4,33,0.00
2014-2-27,8.7,-2.7,-18.9,3.4,-12.5,-27.4,81,62,43,30.23,29.46,34,8,34,0.00
2014-2-28,11.6,-4.7,-24.2,5.8,-11.7,-34.2,83,71,59,30.25,29.56,14,2,14,0.00
2014-3-1,14.0,8.5,-0.7,9.7,-0.9,-11.9,84,66,48,30.37,29.99,16,5,17,0.00
2014-3-2,4.8,-0.7,-10.2,-7.9,-11.1,-19.1,70,61,48,30.43,30.32,15,2,16,1.28
2014-3-3,12.3,-2.5,-23.9,1.8,-13.3,-33.0,72,60,41,30.48,30.32,14,2,16,0.02
2014-3-4,19.7,11.8,-1.2,11.0,5.9,-6.6,84,77,64,30.32,30.19,11,2,11,0.01
2014-3-5,17.1,3.0,-15.6,4.8,-5.3,-23.3,80,68,56,30.58,30.31,16,3,17,3.84
2014-3-6,30.5,12.5,-11.2,8.1,-2.2,-18.0,81,55,24,30.56,30.07,12,3,15,0.00
2014-3-7,42.9,27.7,15.7,27.8,18.1,4.4,91,68,52,30.08,29.81,16,4,18,0.02
2014-3-8,26.9,18.1,5.6,24.6,11.6,0.7,91,76,57,30.23,29.99,19,5,19,0.00
2014-3-9,35.9,20.2,-2.6,26.6,10.7,-8.0,87,68,44,30.19,29.66,26,4,26,0.00
2014-3-10,50.2,36.6,28.5,36.1,30.0,25.6,91,77,56,29.69,29.44,17,2,18,0.00
2014-3-11,33.2,33.1,33.0,29.8,29.7,29.6,87,87,87,29.58,29.58,0,0,2,0.00
2014-3-12,26.3,9.7,3.2,18.0,-1.7,-6.5,79,60,46,30.12,29.86,18,8,23,0.00
2014-3-13,27.1,12.6,-7.0,18.6,2.3,-13.9,76,64,47,30.12,29.77,21,4,21,0.00
2014-3-14,44.5,35.4,24.9,35.2,30.2,18.6,97,82,61,29.77,29.39,17,4,18,0.13
2014-3-15,31.9,18.0,6.2,31.1,10.5,-3.3,97,73,57,30.42,29.64,18,8,23,0.01
2014-3-16,14.5,5.7,-1.8,-3.0,-6.6,-10.4,74,57,37,30.52,30.26,13,3,13,0.00
2014-3-17,28.5,12.8,-4.7,17.1,-0.8,-11.8,79,58,30,30.25,29.91,15,2,15,0.01
2014-3-18,43.2,31.3,19.4,27.5,18.5,9.2,78,60,45,30.01,29.92,12,2,14,0.02
2014-3-19,36.6,32.4,28.9,34.7,29.2,25.8,95,88,78,29.95,29.56,16,3,17,0.05
2014-3-20,33.5,29.5,26.0,27.9,22.0,13.0,95,75,49,30.05,29.74,20,5,21,0.09
2014-3-21,41.0,29.4,15.6,28.5,20.4,12.9,92,71,46,30.06,29.80,14,2,14,0.00
2014-3-22,30.5,21.0,8.2,28.9,15.0,0.7,96,78,59,30.35,29.79,24,6,24,0.00
2014-3-23,20.1,11.2,0.7,6.3,1.0,-4.5,83,64,46,30.40,30.34,15,2,15,0.00
2014-3-24,23.8,13.4,-0.4,9.7,2.5,-5.9,79,63,44,30.34,29.97,24,3,24,0.00
2014-3-25,17.7,14.1,7.4,10.5,3.4,-2.4,82,63,44,30.19,29.89,23,5,23,0.00
2014-3-26,28.7,15.9,-1.6,14.4,4.4,-7.8,78,61,43,30.27,30.07,19,3,19,0.00
2014-3-27,37.5,32.9,24.6,34.3,29.2,12.9,97,87,54,30.08,29.55,19,5,19,0.32
2014-3-28,36.2,32.4,25.4,35.7,30.0,21.8,99,91,78,30.28,29.47,25,5,25,0.21
2014-3-29,36.6,28.5,20.9,25.0,21.4,16.8,90,75,57,30.32,30.22,17,4,17,0.21
2014-3-30,50.6,31.6,15.8,25.6,19.7,12.9,92,66,31,30.27,30.06,11,1,11,0.21
2014-3-31,54.2,40.7,25.4,34.2,28.8,21.3,89,65,40,30.12,29.82,19,2,20,0.21
2014-4-1,49.2,38.5,28.2,40.2,31.1,19.4,86,75,53,29.99,29.60,25,7,25,0.21
2014-4-2,35.9,29.2,23.6,21.1,18.9,16.1,81,66,51,30.27,29.99,14,3,23,0.21
2014-4-3,39.2,30.0,19.6,25.4,21.4,15.1,88,71,55,30.29,29.94,17,3,19,0.21
2014-4-4,37.3,33.7,24.8,33.6,29.2,23.4,99,85,59,29.89,29.32,23,4,23,0.35
2014-4-5,36.8,27.4,20.9,23.9,18.7,12.9,95,71,38,30.15,29.70,24,5,24,0.03
2014-4-6,53.9,41.2,30.2,31.7,26.3,18.8,70,56,39,30.11,29.96,17,3,18,0.00
2014-4-7,55.2,43.5,34.2,33.6,29.0,25.9,76,58,40,29.99,29.61,17,3,18,0.00
2014-4-8,47.9,39.1,33.5,38.5,31.6,24.7,91,75,59,29.91,29.58,19,4,19,0.00
2014-4-9,50.2,39.3,24.2,29.4,25.6,21.2,91,61,41,29.98,29.71,19,4,21,0.00
2014-4-10,54.5,48.9,35.5,41.6,34.0,27.6,90,58,40,29.88,29.51,32,6,32,0.06
2014-4-11,55.9,41.0,28.8,32.3,27.5,23.5,90,63,31,30.04,29.88,15,2,16,0.00
2014-4-12,46.0,38.7,30.3,40.3,35.8,29.0,98,90,75,30.12,29.86,11,2,16,0.18
2014-4-13,46.3,41.7,39.3,46.3,41.0,38.3,100,97,90,29.87,29.64,18,3,18,0.38
2014-4-14,40.6,31.4,23.0,39.6,29.8,20.5,100,94,84,29.95,29.41,36,11,37,1.08
2014-4-15,27.7,22.9,19.7,21.0,16.0,10.6,92,75,59,30.22,29.90,22,7,23,1.08
2014-4-16,41.5,28.5,13.8,30.6,20.9,10.6,92,76,39,30.40,30.21,14,2,16,0.01
2014-4-17,53.6,41.2,34.3,34.6,27.9,21.1,89,60,45,30.36,30.19,21,3,21,0.00
2014-4-18,38.6,33.8,28.4,32.7,29.7,27.0,98,85,68,30.45,30.26,15,3,17,0.00
2014-4-19,59.0,41.2,23.8,34.3,29.4,22.2,97,68,33,30.52,30.28,16,3,16,0.01
2014-4-20,55.4,48.0,41.5,51.9,39.6,31.0,95,73,54,30.29,30.05,14,2,14,0.07
2014-4-21,53.9,46.7,41.6,51.8,46.0,41.3,100,97,86,30.05,29.75,16,1,16,0.16
2014-4-22,44.3,35.9,33.6,44.3,32.8,29.3,100,89,81,30.04,29.80,21,7,24,0.01
2014-4-23,45.7,36.3,28.2,29.9,24.9,16.9,95,67,35,30.19,30.04,17,5,17,0.02
2014-4-24,55.8,41.4,27.3,32.4,24.9,16.7,87,57,30,30.17,29.89,21,2,21,0.02
2014-4-25,47.4,41.3,36.7,41.5,34.0,17.7,99,78,34,29.91,29.71,12,2,12,0.12
2014-4-26,43.8,36.8,30.3,36.8,33.4,25.9,99,88,65,30.17,29.80,15,5,15,0.04
2014-4-27,54.3,41.3,26.9,33.3,27.2,23.0,90,60,41,30.26,30.13,19,3,19,0.02
2014-4-28,56.1,48.7,41.7,32.4,27.2,23.9,57,43,31,30.18,29.90,30,6,30,0.02
2014-4-29,53.2,46.9,41.3,50.7,41.6,30.8,100,83,50,29.92,29.64,19,4,19,0.71
2014-4-30,58.9,50.8,45.7,54.8,50.2,45.7,100,98,79,29.79,29.73,15,2,16,0.32
2014-5-1,50.5,44.8,39.0,48.3,41.1,35.8,100,88,69,29.73,29.66,19,3,19,0.18
2014-5-2,44.9,41.6,38.6,43.4,40.9,37.6,100,98,87,29.72,29.66,13,2,13,0.07
2014-5-3,45.2,42.6,35.5,45.1,42.3,35.2,100,99,92,29.82,29.18,16,2,16,0.20
2014-5-4,45.1,39.0,32.8,38.9,36.0,32.8,100,90,75,30.13,29.79,19,4,19,0.20
2014-5-5,49.2,40.2,34.3,42.2,37.0,32.8,98,88,73,30.15,30.03,16,3,16,0.20
2014-5-6,60.8,45.4,29.1,40.0,33.6,28.4,100,69,39,30.18,30.06,37,2,37,0.20
2014-5-7,59.7,49.1,39.9,44.0,36.1,27.6,79,61,50,30.15,30.00,20,2,20,0.20
2014-5-8,76.6,58.0,47.6,63.6,51.2,41.3,94,79,62,30.01,29.35,15,2,15,0.03
2014-5-9,72.4,64.0,52.7,63.5,58.5,44.7,98,83,65,29.77,29.55,25,6,25,0.40
2014-5-10,62.9,54.1,44.3,45.1,40.2,34.0,78,61,35,29.95,29.70,25,6,27,0.00
2014-5-11,73.4,57.3,42.0,51.1,43.8,37.6,89,64,33,30.05,29.95,15,2,15,0.00
2014-5-12,59.7,55.2,51.2,58.0,49.5,41.8,100,82,62,30.03,29.81,13,2,13,0.26
2014-5-13,68.4,56.1,45.4,65.6,54.9,43.8,100,96,86,30.09,29.38,16,3,16,0.42
2014-5-14,55.5,49.9,45.5,47.9,44.0,31.7,100,81,55,30.21,30.08,18,4,18,0.02
2014-5-15,46.5,38.5,34.6,40.2,36.6,31.6,100,94,56,30.15,29.35,25,7,25,0.42
2014-5-16,44.2,37.4,33.2,36.0,33.4,31.4,98,86,69,30.08,29.97,15,4,16,0.42
2014-5-17,54.7,43.2,29.5,38.1,32.5,27.2,97,70,36,30.09,30.04,19,3,20,0.42
2014-5-18,67.7,53.7,39.9,44.3,37.6,33.1,82,57,30,30.15,30.07,17,3,22,0.42
2014-5-19,69.2,58.3,47.1,49.5,43.7,40.7,83,59,42,30.24,30.11,15,3,16,0.42
2014-5-20,58.5,53.3,47.2,55.1,50.0,42.0,97,89,68,30.14,29.43,42,2,42,0.75
2014-5-21,76.4,57.1,43.4,60.5,51.6,43.3,100,84,46,29.95,29.82,20,3,20,0.75
2014-5-22,55.8,49.0,44.4,48.9,45.9,42.8,100,90,70,30.14,29.95,17,5,17,0.75
2014-5-23,65.8,53.6,45.2,51.5,46.2,39.2,95,78,53,30.22,29.69,21,5,21,0.75
2014-5-24,72.4,57.4,39.6,52.8,46.8,38.8,100,72,42,30.26,30.14,9,2,10,0.00
2014-5-25,76.9,62.5,46.1,53.8,49.0,43.7,100,66,37,30.17,30.02,14,2,14,0.00
2014-5-26,76.5,65.0,51.1,68.5,58.1,46.7,98,79,58,30.04,29.90,13,2,37,0.01
2014-5-27,70.7,61.8,51.4,65.0,55.4,43.1,100,81,51,29.99,29.89,19,4,19,0.00
2014-5-28,70.2,58.4,45.8,57.0,50.4,42.8,96,76,59,30.15,29.99,20,4,20,0.00
2014-5-29,75.8,59.3,45.2,62.5,53.4,45.2,100,83,53,30.22,30.14,14,2,18,0.00
2014-5-30,75.1,65.0,53.4,62.9,55.7,49.0,100,74,51,30.25,30.16,14,3,16,0.00
2014-5-31,84.4,68.2,50.8,63.5,54.3,50.3,100,66,33,30.27,30.11,13,2,14,0.00
2014-6-1,86.8,72.7,64.3,63.1,56.2,48.8,89,58,37,30.15,29.91,19,4,19,0.00
2014-6-2,82.4,70.5,64.1,72.5,67.0,62.7,100,89,66,29.94,29.68,28,4,28,0.69
2014-6-3,69.0,63.2,51.7,66.4,56.6,48.3,93,79,64,29.92,29.66,23,5,23,0.01
2014-6-4,68.2,57.2,46.0,53.4,48.1,43.8,100,74,46,29.96,29.91,12,4,15,0.00
2014-6-5,69.2,56.1,41.6,53.2,47.5,41.6,100,76,48,30.03,29.94,18,2,18,0.00
2014-6-6,77.8,61.2,44.1,60.2,51.6,44.1,100,74,40,30.04,29.96,10,2,11,0.00
2014-6-7,79.8,63.7,48.3,61.5,53.9,47.5,100,73,46,30.06,29.93,16,2,16,0.00
2014-6-8,67.0,57.9,49.5,56.8,50.8,43.3,99,79,47,30.10,29.93,20,7,20,0.00
2014-6-9,76.3,59.2,40.0,57.6,48.8,39.3,100,72,40,30.12,29.99,16,2,16,0.00
2014-6-10,76.4,62.7,47.7,59.9,52.4,44.7,94,71,45,30.05,29.96,12,2,12,0.00
2014-6-11,63.8,61.1,57.7,62.1,56.9,50.1,98,87,67,29.96,29.77,9,2,12,0.00
2014-6-12,72.9,64.0,56.7,66.5,60.9,50.4,100,90,75,29.78,29.69,14,2,14,0.00
2014-6-13,56.5,51.4,43.3,50.3,46.0,41.7,97,82,70,30.05,29.74,18,4,20,0.00
2014-6-14,67.5,53.1,36.5,53.8,46.9,36.2,100,81,57,30.18,30.05,15,2,15,0.00
2014-6-15,81.8,65.8,53.9,62.5,54.1,47.1,100,69,40,30.12,29.85,23,4,23,0.00
2014-6-16,83.0,70.4,58.5,66.9,60.0,54.8,100,74,39,30.04,29.89,14,2,14,0.01
2014-6-17,72.9,64.6,59.4,68.3,62.6,56.2,100,93,78,29.98,29.37,16,2,16,0.60
2014-6-18,70.0,63.6,58.5,68.5,62.8,58.3,100,97,87,30.12,29.94,15,2,15,0.60
2014-6-19,74.3,65.8,53.2,59.5,53.2,37.2,100,68,40,30.25,30.12,15,3,15,0.60
2014-6-20,63.6,57.7,48.0,55.8,48.5,35.7,90,72,54,30.18,30.01,7,1,10,0.60
2014-6-21,71.2,61.6,50.3,58.6,53.1,46.9,96,75,52,30.06,29.94,11,1,11,0.60
2014-6-22,75.7,65.0,57.6,65.5,59.9,54.8,97,84,69,29.98,29.89,14,2,14,0.60
2014-6-23,76.3,65.7,56.8,69.6,63.7,56.0,100,93,75,29.93,29.85,8,1,8,0.60
2014-6-24,74.3,67.3,61.7,69.8,65.3,61.2,100,93,81,29.95,29.84,17,2,17,0.60
2014-6-25,65.4,62.2,59.5,63.3,59.1,56.2,97,90,81,30.07,29.94,11,3,13,0.60
2014-6-26,76.0,65.5,57.9,63.5,59.2,0.0,97,81,61,30.12,30.06,13,2,13,0.60
2014-6-27,79.5,65.1,52.9,66.3,58.6,52.2,100,81,58,30.12,30.06,12,2,12,0.60
2014-6-28,89.0,76.9,65.1,72.9,67.2,61.3,89,73,51,30.10,29.99,16,4,16,0.60
2014-6-29,79.8,74.3,69.6,72.9,69.0,66.0,98,84,68,30.01,29.82,18,4,18,0.72
2014-6-30,83.2,76.4,70.3,72.0,69.1,64.6,94,79,67,29.85,29.57,21,4,21,0.60
2014-7-1,76.5,70.7,64.9,69.9,63.6,61.3,91,79,65,29.69,29.54,26,5,26,0.60
2014-7-2,68.5,59.2,47.8,62.6,54.3,45.1,96,84,68,30.01,29.67,18,4,18,0.60
2014-7-3,69.8,56.0,42.9,55.3,48.4,41.8,98,78,51,30.18,30.00,15,3,15,0.60
2014-7-4,73.8,60.3,44.7,53.6,47.9,43.4,97,68,37,30.32,30.17,13,2,13,0.60
2014-7-5,78.3,66.1,50.6,56.8,52.0,45.4,86,62,44,30.27,30.00,21,4,30,0.60
2014-7-6,73.4,66.7,61.7,69.5,62.3,55.8,100,86,67,30.00,29.60,18,4,18,0.21
2014-7-7,79.2,71.1,63.1,70.4,63.9,58.5,99,80,54,29.66,29.55,23,4,23,0.00
2014-7-8,67.4,59.4,52.6,64.2,56.9,49.6,97,92,82,29.79,29.51,20,3,20,1.37
2014-7-9,65.6,57.6,50.9,56.6,52.3,48.8,96,83,68,30.08,29.79,13,2,13,0.00
2014-7-10,71.3,58.8,44.3,56.5,49.8,43.4,99,75,48,30.22,30.07,13,2,13,1.28
2014-7-11,79.2,65.2,48.0,64.4,56.7,46.1,96,75,56,30.22,30.10,12,2,13,0.00
2014-7-12,76.3,68.9,60.6,69.8,63.0,55.6,99,82,68,30.12,29.82,9,2,10,0.28
2014-7-13,70.8,65.1,55.8,66.0,60.2,52.8,100,86,56,29.88,29.76,15,3,17,0.01
2014-7-14,75.8,63.7,53.3,60.0,54.3,48.5,94,74,40,29.88,29.79,18,3,18,0.05
2014-7-15,59.1,56.1,54.2,57.4,54.6,51.7,100,95,87,29.91,29.34,23,4,23,0.37
2014-7-16,68.2,59.7,52.6,57.6,53.4,50.5,95,81,60,30.01,29.91,14,3,14,0.37
2014-7-17,73.9,61.0,45.8,58.3,51.1,45.0,99,74,41,30.12,30.01,12,2,12,0.37
2014-7-18,78.1,64.5,54.7,60.3,54.9,50.0,93,73,46,30.23,30.12,14,3,15,0.37
2014-7-19,80.7,65.2,50.6,62.7,56.8,49.5,99,77,41,30.16,30.05,12,2,13,0.37
2014-7-20,81.1,68.0,56.1,64.4,59.8,55.5,100,77,51,30.09,30.03,12,2,12,0.37
2014-7-21,84.0,71.3,59.1,68.1,63.2,57.1,96,77,54,30.10,30.04,13,2,14,0.37
2014-7-22,83.8,73.2,61.6,73.7,66.7,57.8,93,81,67,30.07,29.82,24,5,24,0.37
2014-7-23,68.0,61.5,54.4,58.0,55.1,49.3,92,80,59,30.19,30.03,23,7,24,0.37
2014-7-24,71.3,58.9,45.8,57.1,50.2,44.9,99,76,47,30.21,30.04,12,2,12,0.37
2014-7-25,77.4,62.7,48.6,61.5,54.2,46.2,96,75,57,30.05,29.88,19,3,19,0.00
2014-7-26,78.8,68.5,60.6,68.3,63.1,57.7,98,83,70,29.89,29.70,25,3,25,0.03
2014-7-27,74.0,63.5,55.3,67.6,61.5,54.8,100,94,75,29.88,29.19,19,3,19,0.30
2014-7-28,65.5,58.8,53.9,55.3,51.0,45.3,93,76,57,30.06,29.88,23,5,23,0.04
2014-7-29,68.7,60.0,53.7,59.6,56.0,51.5,96,87,70,30.01,29.95,17,2,18,0.04
2014-7-30,69.0,58.4,47.4,59.1,53.1,46.9,100,84,57,30.05,29.99,14,2,14,0.04
2014-7-31,75.8,63.2,51.2,59.5,55.0,48.9,95,77,47,30.02,29.97,19,2,26,0.04
2014-8-1,78.7,65.6,50.8,63.2,56.7,49.8,100,76,46,30.12,30.01,12,2,12,0.04
2014-8-2,79.2,66.2,54.2,65.5,59.6,53.4,99,81,57,30.18,30.10,13,2,13,0.04
2014-8-3,84.0,66.5,54.3,66.5,61.0,53.5,100,85,52,30.16,30.06,18,2,18,0.04
2014-8-4,75.5,65.6,55.8,63.1,59.3,55.3,100,82,52,30.15,30.08,14,3,14,0.04
2014-8-5,75.1,62.5,55.0,63.4,56.1,51.5,99,82,46,30.12,29.60,15,2,16,0.00
2014-8-6,76.5,63.3,48.2,60.6,54.3,47.6,100,76,41,30.12,30.07,16,2,16,0.00
2014-8-7,80.9,65.8,50.6,63.1,57.0,49.7,99,76,44,30.18,30.10,16,2,16,0.00
2014-8-8,82.0,67.9,55.9,62.5,57.7,53.1,94,72,45,30.20,30.13,14,2,14,0.00
2014-8-9,80.7,67.1,53.8,65.1,59.7,52.6,98,79,53,30.23,30.14,18,2,18,0.00
2014-8-10,84.0,68.1,54.9,62.8,59.3,54.1,99,76,41,30.19,30.03,16,2,16,0.00
2014-8-11,75.5,67.8,59.2,68.9,63.6,57.4,98,87,77,30.05,29.78,11,2,11,0.04
2014-8-12,65.3,61.2,56.5,63.7,59.4,53.1,100,94,83,29.87,29.30,24,6,24,0.55
2014-8-13,69.7,60.4,51.8,56.6,52.8,47.1,98,77,56,30.08,29.86,23,6,23,0.55
2014-8-14,64.8,55.7,44.7,53.2,46.2,43.6,98,72,49,30.10,30.02,23,5,24,0.55
2014-8-15,72.6,57.9,41.7,56.0,47.3,39.8,98,71,34,30.05,29.90,14,2,14,0.55
2014-8-16,69.0,63.3,57.7,66.3,59.3,50.5,98,87,74,29.99,29.78,16,3,17,0.97
2014-8-17,70.2,60.9,53.3,61.7,57.1,51.9,99,88,71,30.09,29.98,14,2,14,0.55
2014-8-18,74.3,63.7,51.2,66.3,59.3,50.4,99,87,69,30.03,29.79,15,1,16,0.55
2014-8-19,76.5,67.0,61.9,68.2,63.8,58.6,99,90,74,29.79,29.69,12,2,12,0.01
2014-8-20,68.5,64.3,61.6,64.6,62.7,60.3,100,94,84,29.97,29.74,11,2,11,0.01
2014-8-21,75.5,66.5,61.9,65.9,63.0,60.5,100,89,66,30.04,29.96,11,2,12,0.01
2014-8-22,79.8,70.6,63.0,71.3,67.3,62.4,100,90,73,30.06,29.95,9,1,9,0.02
2014-8-23,82.4,72.2,62.0,69.3,65.9,61.3,100,82,62,30.12,30.05,12,2,13,0.01
2014-8-24,78.5,69.2,59.1,67.8,64.3,58.8,100,85,68,30.16,30.07,12,1,12,0.00
2014-8-25,81.7,70.8,63.3,76.0,68.0,62.1,99,91,76,30.09,29.52,15,3,16,0.21
2014-8-26,72.7,68.0,55.9,70.8,62.6,55.0,98,84,66,30.12,29.98,14,3,14,0.21
2014-8-27,67.0,59.6,52.7,58.4,53.3,45.8,99,81,59,30.21,30.11,15,2,15,0.21
2014-8-28,69.7,56.6,42.9,53.9,48.5,41.8,98,77,48,30.23,30.13,10,2,11,0.21
2014-8-29,76.3,63.2,53.0,68.3,59.4,50.5,99,88,75,30.14,29.90,16,3,18,0.92
2014-8-30,81.9,72.4,63.3,71.7,68.0,62.7,99,86,65,29.91,29.75,20,4,20,0.27
2014-8-31,71.8,64.4,59.8,64.3,62.0,59.0,100,92,76,29.98,29.85,10,2,11,0.21
2014-9-1,78.3,68.5,60.2,71.7,65.5,59.8,100,91,77,29.92,29.65,15,2,18,0.75
2014-9-2,72.7,67.2,57.6,65.0,59.9,55.4,100,79,58,29.91,29.77,13,2,14,0.21
2014-9-3,78.1,66.6,55.5,64.1,59.7,54.4,98,81,54,30.02,29.91,13,2,30,0.21
2014-9-4,73.8,67.1,60.0,70.2,64.5,57.8,99,92,79,30.04,29.38,30,3,35,0.43
2014-9-5,73.1,66.1,61.1,71.0,63.6,54.4,100,92,78,30.02,29.36,14,3,14,0.14
2014-9-6,69.3,61.7,50.6,57.8,53.1,47.5,97,74,52,30.16,30.01,16,3,20,0.03
2014-9-7,75.1,61.2,47.8,57.4,52.1,45.8,96,75,48,30.19,30.13,12,3,16,0.03
2014-9-8,75.5,63.3,52.4,60.0,55.5,49.8,93,78,50,30.19,30.04,13,2,15,0.03
2014-9-9,80.0,67.0,56.9,64.1,58.6,54.8,94,76,50,30.06,29.94,11,2,12,0.03
2014-9-10,68.0,62.5,51.1,67.7,60.5,48.7,99,93,83,29.95,29.40,15,3,21,0.44
2014-9-11,52.1,48.8,45.8,49.2,44.7,41.1,96,86,76,30.29,29.65,22,7,24,0.04
2014-9-12,50.9,46.8,41.3,43.5,40.9,37.6,96,80,65,30.40,30.28,11,2,12,0.12
2014-9-13,52.9,45.3,39.2,46.8,42.0,38.1,97,89,70,30.34,30.24,12,2,13,0.31
2014-9-14,60.7,49.7,37.7,47.2,43.2,36.7,98,80,58,30.34,30.11,19,3,19,0.03
2014-9-15,61.3,53.9,45.8,52.0,47.5,43.2,97,80,55,30.14,30.09,9,2,11,0.03
2014-9-16,61.5,50.1,41.6,50.7,44.2,40.7,99,83,47,30.16,30.03,13,2,15,0.00
2014-9-17,65.8,56.0,47.0,54.5,48.5,43.5,94,77,49,30.08,29.95,16,4,17,0.00
2014-9-18,60.0,50.1,41.6,46.1,42.4,39.7,94,76,53,30.24,30.07,11,2,12,0.00
2014-9-19,68.5,56.1,42.3,55.2,48.7,40.1,94,77,61,30.25,29.86,22,5,23,0.00
2014-9-20,71.5,64.6,58.8,64.3,59.1,50.4,97,83,60,29.86,29.66,21,5,22,0.80
2014-9-21,59.4,52.6,48.3,57.8,49.4,40.0,99,89,72,30.09,29.57,31,8,31,0.98
2014-9-22,62.2,52.5,44.3,50.3,44.9,38.7,89,76,63,30.20,30.08,16,3,16,0.00
2014-9-23,72.6,58.1,48.6,59.6,52.8,47.0,97,84,59,30.35,30.19,12,2,12,0.00
2014-9-24,75.5,58.4,46.0,60.5,53.6,45.2,100,86,57,30.43,30.34,11,1,12,0.00
2014-9-25,76.0,60.5,50.0,59.5,54.2,49.2,99,82,48,30.36,30.27,8,1,9,0.00
2014-9-26,77.6,60.1,47.5,61.9,54.7,46.9,100,85,51,30.34,30.28,10,1,11,0.00
2014-9-27,77.1,59.3,44.9,63.3,53.7,44.1,100,84,50,30.34,30.21,8,1,10,0.00
2014-9-28,76.0,60.9,48.7,62.7,56.1,48.4,100,86,60,30.24,30.06,8,1,8,0.00
2014-9-29,64.9,55.0,46.4,59.7,53.2,45.9,99,94,81,30.06,29.97,19,4,19,0.36
2014-9-30,51.2,47.4,43.2,48.4,45.5,42.2,99,93,86,30.09,30.01,11,3,12,0.00
2014-10-1,67.4,54.9,48.4,58.1,52.1,47.0,99,91,68,30.10,29.98,10,1,14,0.00
2014-10-2,62.4,56.7,49.0,60.7,56.1,48.5,100,98,94,30.02,29.69,14,2,18,0.88
2014-10-3,63.0,57.9,47.4,62.7,57.2,45.9,100,97,93,29.69,28.96,22,4,22,1.50
2014-10-4,47.3,43.2,41.6,46.2,41.0,38.5,97,92,75,29.57,29.48,22,3,27,1.50
2014-10-5,46.8,43.5,40.7,41.8,38.7,35.0,98,84,65,29.59,29.52,16,3,20,1.50
2014-10-6,55.4,46.2,39.7,44.3,40.3,38.0,95,80,57,29.57,29.51,15,3,16,1.50
2014-10-7,59.3,49.1,38.3,49.7,44.1,36.9,97,84,63,29.68,29.50,21,3,21,1.50
2014-10-8,49.5,45.5,41.4,43.6,37.4,32.6,91,74,55,29.91,29.68,19,3,19,1.50
2014-10-9,52.1,46.5,39.9,42.3,38.5,32.2,96,74,55,30.12,29.90,16,4,16,1.50
2014-10-10,51.7,45.4,38.0,41.7,39.2,36.4,95,80,65,30.20,30.11,16,3,16,1.50
2014-10-11,53.6,41.9,35.5,45.5,39.3,34.2,99,91,68,30.26,30.17,11,2,12,1.50
2014-10-12,61.0,45.2,34.0,41.6,36.9,32.9,97,76,43,30.18,29.99,13,2,13,1.50
2014-10-13,62.4,51.9,42.3,58.2,50.0,37.5,100,93,82,29.99,29.68,7,1,7,1.50
2014-10-14,64.3,59.4,54.9,64.0,59.3,54.8,100,99,97,29.68,29.54,20,3,20,1.50
2014-10-15,57.1,53.8,51.5,54.9,53.0,51.1,100,98,90,29.88,29.66,17,4,17,1.50
2014-10-16,57.0,53.0,50.6,53.9,52.0,49.8,100,97,88,29.85,29.62,8,1,9,1.50
2014-10-17,53.6,49.3,43.3,53.6,48.8,41.4,100,98,93,29.70,29.43,30,5,30,0.37
2014-10-18,43.6,41.4,38.5,42.2,36.1,31.4,95,82,72,30.17,29.70,34,11,34,0.07
2014-10-19,51.5,42.1,31.2,44.2,36.6,29.3,96,82,65,30.16,29.81,16,3,16,0.07
2014-10-20,50.8,48.0,45.5,49.5,45.5,43.1,96,91,83,29.95,29.74,19,4,19,0.07
2014-10-21,49.4,43.3,30.8,45.5,36.2,27.0,97,77,51,30.32,29.95,17,5,19,0.07
2014-10-22,50.6,32.4,25.0,39.1,29.4,23.2,98,89,55,30.44,30.30,8,1,10,0.07
2014-10-23,56.1,40.1,27.9,44.2,35.5,26.4,98,85,58,30.30,30.06,9,2,9,0.01
2014-10-24,53.6,49.4,43.1,50.2,46.0,39.3,94,88,83,30.06,29.86,10,2,10,0.00
2014-10-25,58.8,53.7,46.7,51.9,44.4,36.1,95,72,48,29.86,29.72,27,5,27,0.00
2014-10-26,51.8,46.2,33.0,39.6,36.7,30.7,94,70,57,29.95,29.79,21,4,21,0.00
2014-10-27,53.0,40.6,29.3,48.1,38.5,27.9,98,92,76,29.93,29.17,14,1,15,0.52
2014-10-28,63.2,52.6,47.7,58.4,46.8,38.2,97,81,60,29.77,29.49,26,5,26,0.52
2014-10-29,47.9,43.2,37.2,40.8,37.8,33.0,92,81,72,30.09,29.74,22,5,23,0.52
2014-10-30,45.6,41.3,36.9,40.3,37.6,34.4,96,87,77,30.10,29.93,11,1,11,0.52
2014-10-31,40.7,34.4,29.3,39.5,28.8,17.6,97,81,60,30.40,29.90,32,10,32,0.52
2014-11-1,37.5,29.7,24.2,25.3,21.1,16.9,88,70,57,30.47,30.37,19,5,23,0.52
2014-11-2,48.9,35.3,22.6,35.9,27.6,19.6,90,75,51,30.38,30.14,19,3,19,0.52
2014-11-3,54.9,49.1,43.7,42.2,35.4,28.5,74,59,48,30.14,29.86,14,3,17,0.52
2014-11-4,53.9,47.8,39.7,51.2,44.3,33.5,97,88,66,29.86,29.69,21,5,23,0.57
2014-11-5,97.5,41.3,36.2,82.3,33.4,30.2,95,74,62,30.05,29.80,20,3,20,0.52
2014-11-6,38.9,36.5,35.2,36.5,33.0,26.7,96,88,66,30.10,29.85,22,7,28,0.52
2014-11-7,39.3,35.7,32.2,31.7,26.7,23.6,93,70,54,30.11,29.83,16,3,21,0.52
2014-11-8,39.5,35.6,31.5,38.1,31.0,21.8,97,84,62,29.84,29.58,27,6,27,0.52
2014-11-9,35.9,32.0,27.3,34.9,29.8,24.8,97,92,73,29.88,29.65,16,2,17,0.52
2014-11-10,39.3,32.6,26.5,38.3,30.4,23.6,97,92,80,29.98,29.66,10,1,11,0.52
2014-11-11,39.9,36.9,29.6,39.4,36.0,26.9,98,96,88,29.83,29.54,21,4,21,0.52
2014-11-12,32.2,29.3,26.3,27.0,23.2,19.8,92,78,63,30.13,29.82,22,5,22,0.52
2014-11-13,32.8,28.8,26.6,26.5,23.2,18.8,93,80,61,30.12,30.08,17,4,21,1.35
2014-11-14,32.7,29.7,27.5,24.9,21.2,17.3,87,70,55,30.25,30.11,14,4,20,0.52
2014-11-15,30.7,27.4,25.2,22.9,19.7,16.4,90,73,61,30.27,30.13,18,4,18,0.52
2014-11-16,29.9,27.0,24.0,26.4,23.5,20.5,93,87,69,30.14,29.77,15,3,16,0.52
2014-11-17,28.4,23.1,18.6,26.7,18.6,13.3,94,83,72,29.77,29.55,21,4,21,0.52
2014-11-18,25.2,21.5,17.5,18.5,15.0,10.2,89,76,61,29.92,29.53,29,6,29,0.52
2014-11-19,23.9,20.0,15.6,21.0,15.0,10.4,90,81,70,29.92,29.55,32,5,32,0.52
2014-11-20,24.4,21.2,17.7,16.3,9.9,3.3,77,62,45,30.13,29.64,24,6,24,0.52
2014-11-21,27.8,22.7,17.0,19.0,13.7,7.8,80,68,58,30.35,30.07,23,4,23,0.52
2014-11-22,38.9,35.9,27.9,38.4,32.2,19.0,98,87,69,30.07,29.78,25,5,25,0.52
2014-11-23,48.0,42.7,36.7,45.2,41.6,35.9,98,96,87,29.83,29.24,15,2,15,0.52
2014-11-24,44.6,39.5,30.8,44.3,38.9,29.6,99,97,95,29.47,28.93,16,2,17,0.59
2014-11-25,30.6,28.1,26.0,29.8,25.7,23.0,98,91,86,30.16,29.46,11,2,12,0.05
2014-11-26,27.2,25.5,23.9,23.8,22.1,20.4,91,87,79,30.20,30.12,7,1,7,0.05
2014-11-27,26.8,22.1,17.7,24.8,16.0,8.6,93,77,64,30.31,30.12,27,7,27,0.05
2014-11-28,24.1,20.3,16.9,19.5,15.4,10.9,85,81,74,30.30,29.97,11,2,12,0.05
2014-11-29,41.9,31.7,24.0,39.0,27.4,19.3,90,84,79,29.97,29.11,16,4,16,0.42
2014-11-30,44.6,34.8,25.2,41.8,30.3,16.5,92,83,69,30.20,29.53,27,6,28,0.01
2014-12-1,25.3,17.4,11.1,16.9,8.0,2.5,75,66,59,30.69,30.20,55,6,55,0.00
2014-12-2,29.7,19.0,5.3,24.9,11.8,-0.4,85,73,61,30.65,29.92,19,3,19,0.00
2014-12-3,31.4,27.2,23.9,25.7,18.7,10.1,83,70,55,30.27,29.89,22,6,25,0.00
2014-12-4,29.4,25.5,23.0,16.0,12.3,10.2,68,57,47,30.46,30.27,14,2,15,0.00
2014-12-5,34.3,30.0,22.4,29.0,21.5,13.6,85,70,57,30.35,30.19,11,2,12,0.00
2014-12-6,33.9,30.4,21.5,30.6,22.5,15.6,92,73,60,30.72,30.28,18,6,23,0.00
2014-12-7,34.6,24.9,13.5,22.5,16.9,10.1,91,73,48,30.73,30.32,16,2,16,0.00
2014-12-8,33.8,31.6,29.4,31.1,25.1,13.2,96,78,48,30.33,30.00,16,3,17,0.04
2014-12-9,34.5,30.9,24.5,33.3,28.2,18.0,97,90,79,30.42,29.84,23,6,23,0.15
2014-12-10,24.8,19.7,10.3,20.0,15.6,7.5,90,84,74,30.44,30.23,12,3,12,0.15
2014-12-11,34.5,19.6,4.9,30.0,16.0,0.4,94,86,76,30.23,30.10,15,1,15,0.15
2014-12-12,33.2,31.7,29.4,32.4,29.7,26.6,97,92,88,30.21,30.13,8,2,13,0.01
2014-12-13,38.2,35.8,33.2,37.5,34.8,32.4,98,96,92,30.15,29.97,10,3,21,0.15
2014-12-14,44.2,39.1,35.0,41.3,37.6,33.7,98,95,88,30.06,29.98,12,1,12,0.15
2014-12-15,44.9,42.9,39.9,44.9,42.6,39.4,100,99,97,30.00,29.80,8,2,8,1.33
2014-12-16,42.3,40.1,36.7,42.3,39.9,36.2,100,99,98,29.84,29.70,8,1,8,0.19
2014-12-17,36.7,29.3,26.9,36.5,27.5,23.6,99,93,87,30.15,29.84,15,5,15,1.30
2014-12-18,26.9,22.0,10.9,23.7,16.6,7.0,88,80,67,30.27,30.15,14,4,15,0.15
2014-12-19,28.7,15.9,6.4,22.2,12.0,2.3,92,85,75,30.32,30.25,6,1,7,1.30
2014-12-20,28.8,24.7,18.0,23.5,20.9,15.8,92,85,78,30.31,30.25,6,1,8,0.15
2014-12-21,32.9,29.7,25.7,30.0,26.0,20.8,89,86,81,30.27,30.09,14,3,15,0.15
2014-12-22,38.3,32.3,29.1,29.5,26.5,24.8,92,79,64,30.10,29.91,152,3,152,0.15
2014-12-23,38.9,35.7,31.3,38.1,34.5,29.2,98,95,92,29.91,29.70,12,2,12,0.47
2014-12-24,36.7,34.2,31.6,35.8,33.5,30.6,99,97,95,29.79,29.34,15,2,16,0.15
2014-12-25,36.8,35.4,33.4,32.8,31.4,29.8,97,85,79,30.01,29.38,16,5,23,0.15
2014-12-26,40.5,38.1,35.9,36.8,35.1,32.4,93,89,84,30.07,29.98,14,2,14,0.15
2014-12-27,44.3,37.1,30.9,44.0,35.5,27.5,100,94,86,30.06,29.71,25,4,25,0.29
2014-12-28,31.8,27.3,20.9,27.5,19.9,10.6,85,73,61,30.24,29.96,18,4,18,0.15
2014-12-29,21.9,19.7,16.6,14.5,10.7,5.4,78,68,59,30.47,30.23,21,4,21,0.15
2014-12-30,17.5,15.6,11.3,12.1,9.2,4.9,83,76,61,30.51,30.41,16,4,18,0.15
2014-12-31,19.7,14.4,10.3,12.6,7.4,2.5,82,73,66,30.42,29.87,30,7,32,0.15
2015-1-1,26.0,21.6,17.5,21.2,15.8,6.5,92,78,60,30.02,29.72,23,6,23,0.15
2015-1-2,66.8,16.9,8.0,11.2,6.7,1.7,81,64,54,30.30,30.02,12,2,15,0.15